sensor_id;sensor_type;location;lat;lon;timestamp;temperature;humidity
30648;DHT22;17683;53.360;9.736;2023-08-20T00:01:02;19.40;99.90
30648;DHT22;17683;53.360;9.736;2023-08-20T00:03:29;19.40;99.90
30648;DHT22;17683;53.360;9.736;2023-08-20T00:05:55;19.30;99.90
30648;DHT22;17683;53.360;9.736;2023-08-20T00:08:21;19.30;99.90
30648;DHT22;17683;53.360;9.736;2023-08-20T00:10:47;19.20;99.90
30648;DHT22;17683;53.360;9.736;2023-08-20T00:13:13;19.20;99.90
30648;DHT22;17683;53.360;9.736;2023-08-20T00:15:39;19.10;99.90
30648;DHT22;17683;53.360;9.736;2023-08-20T00:18:05;19.00;99.90
30648;DHT22;17683;53.360;9.736;2023-08-20T00:20:31;19.00;99.90
30648;DHT22;17683;53.360;9.736;2023-08-20T00:22:56;19.00;99.90
30648;DHT22;17683;53.360;9.736;2023-08-20T00:25:22;19.00;99.90
30648;DHT22;17683;53.360;9.736;2023-08-20T00:27:48;18.90;99.90
30648;DHT22;17683;53.360;9.736;2023-08-20T00:30:14;18.90;99.90
30648;DHT22;17683;53.360;9.736;2023-08-20T00:32:40;18.80;99.90
30648;DHT22;17683;53.360;9.736;2023-08-20T00:35:06;18.80;99.90
30648;DHT22;17683;53.360;9.736;2023-08-20T00:37:33;18.70;99.90
30648;DHT22;17683;53.360;9.736;2023-08-20T00:39:58;18.60;99.90
30648;DHT22;17683;53.360;9.736;2023-08-20T00:42:25;18.60;99.90
30648;DHT22;17683;53.360;9.736;2023-08-20T00:44:52;18.60;99.90
30648;DHT22;17683;53.360;9.736;2023-08-20T00:47:18;18.50;99.90
30648;DHT22;17683;53.360;9.736;2023-08-20T00:49:46;18.50;99.90
30648;DHT22;17683;53.360;9.736;2023-08-20T00:52:12;18.40;99.90
30648;DHT22;17683;53.360;9.736;2023-08-20T00:54:42;18.30;99.90
30648;DHT22;17683;53.360;9.736;2023-08-20T00:57:09;18.30;99.90
30648;DHT22;17683;53.360;9.736;2023-08-20T00:59:35;18.30;99.90
30648;DHT22;17683;53.360;9.736;2023-08-20T01:02:01;18.20;99.90
30648;DHT22;17683;53.360;9.736;2023-08-20T01:04:29;18.20;99.90
30648;DHT22;17683;53.360;9.736;2023-08-20T01:07:28;18.10;99.90
30648;DHT22;17683;53.360;9.736;2023-08-20T01:10:10;18.10;99.90
30648;DHT22;17683;53.360;9.736;2023-08-20T01:12:37;18.00;99.90
30648;DHT22;17683;53.360;9.736;2023-08-20T01:15:04;18.00;99.90
30648;DHT22;17683;53.360;9.736;2023-08-20T01:17:30;18.00;99.90
30648;DHT22;17683;53.360;9.736;2023-08-20T01:19:56;17.90;99.90
30648;DHT22;17683;53.360;9.736;2023-08-20T01:28:26;17.90;99.90
30648;DHT22;17683;53.360;9.736;2023-08-20T01:30:54;17.90;99.90
30648;DHT22;17683;53.360;9.736;2023-08-20T01:33:20;17.80;99.90
30648;DHT22;17683;53.360;9.736;2023-08-20T01:35:46;17.80;99.90
30648;DHT22;17683;53.360;9.736;2023-08-20T01:38:12;17.80;99.90
30648;DHT22;17683;53.360;9.736;2023-08-20T01:40:37;17.80;99.90
30648;DHT22;17683;53.360;9.736;2023-08-20T01:43:03;17.70;99.90
30648;DHT22;17683;53.360;9.736;2023-08-20T01:45:29;17.70;99.90
30648;DHT22;17683;53.360;9.736;2023-08-20T01:47:54;17.70;99.90
30648;DHT22;17683;53.360;9.736;2023-08-20T01:50:20;17.70;99.90
30648;DHT22;17683;53.360;9.736;2023-08-20T01:52:46;17.70;99.90
30648;DHT22;17683;53.360;9.736;2023-08-20T01:55:12;17.80;99.90
30648;DHT22;17683;53.360;9.736;2023-08-20T01:57:38;17.80;99.90
30648;DHT22;17683;53.360;9.736;2023-08-20T02:00:04;17.80;99.90
30648;DHT22;17683;53.360;9.736;2023-08-20T02:02:33;17.90;99.90
30648;DHT22;17683;53.360;9.736;2023-08-20T02:05:00;17.90;99.90
30648;DHT22;17683;53.360;9.736;2023-08-20T02:07:25;17.90;99.90
30648;DHT22;17683;53.360;9.736;2023-08-20T02:09:51;17.90;99.90
30648;DHT22;17683;53.360;9.736;2023-08-20T02:12:17;18.00;99.90
30648;DHT22;17683;53.360;9.736;2023-08-20T02:14:43;18.00;99.90
30648;DHT22;17683;53.360;9.736;2023-08-20T02:17:10;18.10;99.90
30648;DHT22;17683;53.360;9.736;2023-08-20T02:19:37;18.10;99.90
30648;DHT22;17683;53.360;9.736;2023-08-20T02:22:03;18.00;99.90
30648;DHT22;17683;53.360;9.736;2023-08-20T02:24:29;18.00;99.90
30648;DHT22;17683;53.360;9.736;2023-08-20T02:26:55;18.00;99.90
30648;DHT22;17683;53.360;9.736;2023-08-20T02:29:21;18.10;99.90
30648;DHT22;17683;53.360;9.736;2023-08-20T02:31:46;18.10;99.90
30648;DHT22;17683;53.360;9.736;2023-08-20T02:34:12;18.10;99.90
30648;DHT22;17683;53.360;9.736;2023-08-20T02:36:38;18.10;99.90
30648;DHT22;17683;53.360;9.736;2023-08-20T02:39:03;18.10;99.90
30648;DHT22;17683;53.360;9.736;2023-08-20T02:41:36;18.20;99.90
30648;DHT22;17683;53.360;9.736;2023-08-20T02:44:02;18.20;99.90
30648;DHT22;17683;53.360;9.736;2023-08-20T02:46:28;18.30;99.90
30648;DHT22;17683;53.360;9.736;2023-08-20T02:48:54;18.40;99.90
30648;DHT22;17683;53.360;9.736;2023-08-20T02:51:20;18.40;99.90
30648;DHT22;17683;53.360;9.736;2023-08-20T02:53:45;18.50;99.90
30648;DHT22;17683;53.360;9.736;2023-08-20T02:56:11;18.50;99.90
30648;DHT22;17683;53.360;9.736;2023-08-20T02:58:37;18.40;99.90
30648;DHT22;17683;53.360;9.736;2023-08-20T03:01:03;18.50;99.90
30648;DHT22;17683;53.360;9.736;2023-08-20T03:03:28;18.50;99.90
30648;DHT22;17683;53.360;9.736;2023-08-20T03:05:54;18.40;99.90
30648;DHT22;17683;53.360;9.736;2023-08-20T03:08:20;18.40;99.90
30648;DHT22;17683;53.360;9.736;2023-08-20T03:10:46;18.40;99.90
30648;DHT22;17683;53.360;9.736;2023-08-20T03:13:12;18.40;99.90
30648;DHT22;17683;53.360;9.736;2023-08-20T03:15:37;18.40;99.90
30648;DHT22;17683;53.360;9.736;2023-08-20T03:18:04;18.40;99.90
30648;DHT22;17683;53.360;9.736;2023-08-20T03:20:30;18.40;99.90
30648;DHT22;17683;53.360;9.736;2023-08-20T03:22:57;18.40;99.90
30648;DHT22;17683;53.360;9.736;2023-08-20T03:25:23;18.40;99.90
30648;DHT22;17683;53.360;9.736;2023-08-20T03:27:49;18.50;99.90
30648;DHT22;17683;53.360;9.736;2023-08-20T03:30:15;18.50;99.90
30648;DHT22;17683;53.360;9.736;2023-08-20T03:32:41;18.50;99.90
30648;DHT22;17683;53.360;9.736;2023-08-20T03:35:07;18.50;99.90
30648;DHT22;17683;53.360;9.736;2023-08-20T03:37:33;18.60;99.90
30648;DHT22;17683;53.360;9.736;2023-08-20T03:39:58;18.60;99.90
30648;DHT22;17683;53.360;9.736;2023-08-20T03:42:24;18.60;99.90
30648;DHT22;17683;53.360;9.736;2023-08-20T03:44:50;18.60;99.90
30648;DHT22;17683;53.360;9.736;2023-08-20T03:47:16;18.60;99.90
30648;DHT22;17683;53.360;9.736;2023-08-20T03:49:46;18.60;99.90
30648;DHT22;17683;53.360;9.736;2023-08-20T03:52:11;18.50;99.90
30648;DHT22;17683;53.360;9.736;2023-08-20T03:54:37;18.60;99.90
30648;DHT22;17683;53.360;9.736;2023-08-20T03:57:03;18.50;99.90
30648;DHT22;17683;53.360;9.736;2023-08-20T03:59:30;18.60;99.90
30648;DHT22;17683;53.360;9.736;2023-08-20T04:01:56;18.60;99.90
30648;DHT22;17683;53.360;9.736;2023-08-20T04:04:22;18.50;99.90
30648;DHT22;17683;53.360;9.736;2023-08-20T04:06:47;18.50;99.90
30648;DHT22;17683;53.360;9.736;2023-08-20T04:09:13;18.50;99.90
30648;DHT22;17683;53.360;9.736;2023-08-20T04:11:39;18.50;99.90
30648;DHT22;17683;53.360;9.736;2023-08-20T04:14:05;18.50;99.90
30648;DHT22;17683;53.360;9.736;2023-08-20T04:16:30;18.50;99.90
30648;DHT22;17683;53.360;9.736;2023-08-20T04:18:56;18.50;99.90
30648;DHT22;17683;53.360;9.736;2023-08-20T04:21:22;18.60;99.90
30648;DHT22;17683;53.360;9.736;2023-08-20T04:23:47;18.50;99.90
30648;DHT22;17683;53.360;9.736;2023-08-20T04:26:13;18.50;99.90
30648;DHT22;17683;53.360;9.736;2023-08-20T04:28:39;18.40;99.90
30648;DHT22;17683;53.360;9.736;2023-08-20T04:31:05;18.40;99.90
30648;DHT22;17683;53.360;9.736;2023-08-20T04:33:30;18.40;99.90
30648;DHT22;17683;53.360;9.736;2023-08-20T04:35:56;18.40;99.90
30648;DHT22;17683;53.360;9.736;2023-08-20T04:38:22;18.50;99.90
30648;DHT22;17683;53.360;9.736;2023-08-20T04:40:48;18.50;99.90
30648;DHT22;17683;53.360;9.736;2023-08-20T04:43:15;18.40;99.90
30648;DHT22;17683;53.360;9.736;2023-08-20T04:45:41;18.50;99.90
30648;DHT22;17683;53.360;9.736;2023-08-20T04:48:07;18.50;99.90
30648;DHT22;17683;53.360;9.736;2023-08-20T04:50:33;18.50;99.90
30648;DHT22;17683;53.360;9.736;2023-08-20T04:52:59;18.50;99.90
30648;DHT22;17683;53.360;9.736;2023-08-20T04:55:26;18.50;99.90
30648;DHT22;17683;53.360;9.736;2023-08-20T04:57:51;18.50;99.90
30648;DHT22;17683;53.360;9.736;2023-08-20T05:00:17;18.50;99.90
30648;DHT22;17683;53.360;9.736;2023-08-20T05:02:43;18.60;99.90
30648;DHT22;17683;53.360;9.736;2023-08-20T05:05:10;18.60;99.90
30648;DHT22;17683;53.360;9.736;2023-08-20T05:07:35;18.70;99.90
30648;DHT22;17683;53.360;9.736;2023-08-20T05:10:01;18.60;99.90
30648;DHT22;17683;53.360;9.736;2023-08-20T05:12:28;18.60;99.90
30648;DHT22;17683;53.360;9.736;2023-08-20T05:14:53;18.60;99.90
30648;DHT22;17683;53.360;9.736;2023-08-20T05:17:19;18.60;99.90
30648;DHT22;17683;53.360;9.736;2023-08-20T05:19:45;18.50;99.90
30648;DHT22;17683;53.360;9.736;2023-08-20T05:22:10;18.50;99.90
30648;DHT22;17683;53.360;9.736;2023-08-20T05:24:38;18.50;99.90
30648;DHT22;17683;53.360;9.736;2023-08-20T05:27:14;18.60;99.90
30648;DHT22;17683;53.360;9.736;2023-08-20T05:29:40;18.50;99.90
30648;DHT22;17683;53.360;9.736;2023-08-20T05:32:07;18.60;99.90
30648;DHT22;17683;53.360;9.736;2023-08-20T05:34:32;18.60;99.90
30648;DHT22;17683;53.360;9.736;2023-08-20T05:36:58;18.60;99.90
30648;DHT22;17683;53.360;9.736;2023-08-20T05:39:24;18.60;99.90
30648;DHT22;17683;53.360;9.736;2023-08-20T05:41:54;18.60;99.90
30648;DHT22;17683;53.360;9.736;2023-08-20T05:44:20;18.60;99.90
30648;DHT22;17683;53.360;9.736;2023-08-20T05:46:46;18.60;99.90
30648;DHT22;17683;53.360;9.736;2023-08-20T05:49:13;18.70;99.90
30648;DHT22;17683;53.360;9.736;2023-08-20T05:51:41;18.70;99.90
30648;DHT22;17683;53.360;9.736;2023-08-20T05:54:07;18.70;99.90
30648;DHT22;17683;53.360;9.736;2023-08-20T05:56:33;18.80;99.90
30648;DHT22;17683;53.360;9.736;2023-08-20T05:58:58;18.70;99.90
30648;DHT22;17683;53.360;9.736;2023-08-20T06:01:24;18.80;99.90
30648;DHT22;17683;53.360;9.736;2023-08-20T06:03:50;18.80;99.90
30648;DHT22;17683;53.360;9.736;2023-08-20T06:06:15;18.90;99.90
30648;DHT22;17683;53.360;9.736;2023-08-20T06:08:41;18.90;99.90
30648;DHT22;17683;53.360;9.736;2023-08-20T06:11:07;18.90;99.90
30648;DHT22;17683;53.360;9.736;2023-08-20T06:13:32;19.00;99.90
30648;DHT22;17683;53.360;9.736;2023-08-20T06:15:58;19.00;99.90
30648;DHT22;17683;53.360;9.736;2023-08-20T06:18:24;19.00;99.90
30648;DHT22;17683;53.360;9.736;2023-08-20T06:20:50;19.10;99.90
30648;DHT22;17683;53.360;9.736;2023-08-20T06:23:15;19.10;99.90
30648;DHT22;17683;53.360;9.736;2023-08-20T06:25:41;19.10;99.90
30648;DHT22;17683;53.360;9.736;2023-08-20T06:28:08;19.10;99.90
30648;DHT22;17683;53.360;9.736;2023-08-20T06:30:35;19.10;99.90
30648;DHT22;17683;53.360;9.736;2023-08-20T06:33:00;19.20;99.90
30648;DHT22;17683;53.360;9.736;2023-08-20T06:35:26;19.20;99.90
30648;DHT22;17683;53.360;9.736;2023-08-20T06:37:52;19.20;99.90
30648;DHT22;17683;53.360;9.736;2023-08-20T06:40:18;19.30;99.90
30648;DHT22;17683;53.360;9.736;2023-08-20T06:42:43;19.20;99.90
30648;DHT22;17683;53.360;9.736;2023-08-20T06:45:09;19.20;99.90
30648;DHT22;17683;53.360;9.736;2023-08-20T06:47:35;19.30;99.90
30648;DHT22;17683;53.360;9.736;2023-08-20T06:50:01;19.30;99.90
30648;DHT22;17683;53.360;9.736;2023-08-20T06:52:27;19.30;99.90
30648;DHT22;17683;53.360;9.736;2023-08-20T06:54:52;19.30;99.90
30648;DHT22;17683;53.360;9.736;2023-08-20T06:57:18;19.30;99.90
30648;DHT22;17683;53.360;9.736;2023-08-20T06:59:44;19.50;99.90
30648;DHT22;17683;53.360;9.736;2023-08-20T07:02:10;19.60;99.90
30648;DHT22;17683;53.360;9.736;2023-08-20T07:04:36;19.70;99.90
30648;DHT22;17683;53.360;9.736;2023-08-20T07:07:03;19.80;99.90
30648;DHT22;17683;53.360;9.736;2023-08-20T07:09:31;19.90;99.90
30648;DHT22;17683;53.360;9.736;2023-08-20T07:11:57;20.00;99.90
30648;DHT22;17683;53.360;9.736;2023-08-20T07:14:22;20.00;99.90
30648;DHT22;17683;53.360;9.736;2023-08-20T07:16:48;20.10;99.90
30648;DHT22;17683;53.360;9.736;2023-08-20T07:19:14;20.10;99.90
30648;DHT22;17683;53.360;9.736;2023-08-20T07:21:40;20.30;99.90
30648;DHT22;17683;53.360;9.736;2023-08-20T07:24:06;20.50;99.90
30648;DHT22;17683;53.360;9.736;2023-08-20T07:26:32;20.70;99.90
30648;DHT22;17683;53.360;9.736;2023-08-20T07:28:57;20.80;99.90
30648;DHT22;17683;53.360;9.736;2023-08-20T07:31:24;20.90;99.90
30648;DHT22;17683;53.360;9.736;2023-08-20T07:33:51;20.80;99.90
30648;DHT22;17683;53.360;9.736;2023-08-20T07:36:19;20.80;99.90
30648;DHT22;17683;53.360;9.736;2023-08-20T07:38:47;20.90;99.90
30648;DHT22;17683;53.360;9.736;2023-08-20T07:41:13;20.90;99.90
30648;DHT22;17683;53.360;9.736;2023-08-20T07:43:40;20.90;99.90
30648;DHT22;17683;53.360;9.736;2023-08-20T07:46:07;21.10;99.90
30648;DHT22;17683;53.360;9.736;2023-08-20T07:48:34;21.20;99.90
30648;DHT22;17683;53.360;9.736;2023-08-20T07:51:00;21.30;99.90
30648;DHT22;17683;53.360;9.736;2023-08-20T07:53:26;21.50;99.90
30648;DHT22;17683;53.360;9.736;2023-08-20T07:55:52;21.60;99.90
30648;DHT22;17683;53.360;9.736;2023-08-20T07:58:17;21.80;99.90
30648;DHT22;17683;53.360;9.736;2023-08-20T08:00:43;21.90;99.90
30648;DHT22;17683;53.360;9.736;2023-08-20T08:03:09;21.90;99.90
30648;DHT22;17683;53.360;9.736;2023-08-20T08:05:35;22.00;99.90
30648;DHT22;17683;53.360;9.736;2023-08-20T08:08:02;22.00;99.90
30648;DHT22;17683;53.360;9.736;2023-08-20T08:10:28;22.00;99.90
30648;DHT22;17683;53.360;9.736;2023-08-20T08:12:54;22.20;99.90
30648;DHT22;17683;53.360;9.736;2023-08-20T08:15:20;22.30;99.90
30648;DHT22;17683;53.360;9.736;2023-08-20T08:17:45;22.40;99.90
30648;DHT22;17683;53.360;9.736;2023-08-20T08:20:11;22.60;99.90
30648;DHT22;17683;53.360;9.736;2023-08-20T08:22:37;22.70;99.90
30648;DHT22;17683;53.360;9.736;2023-08-20T08:25:03;22.90;99.90
30648;DHT22;17683;53.360;9.736;2023-08-20T08:27:29;23.00;99.90
30648;DHT22;17683;53.360;9.736;2023-08-20T08:29:54;23.10;99.90
30648;DHT22;17683;53.360;9.736;2023-08-20T08:32:20;23.20;99.90
30648;DHT22;17683;53.360;9.736;2023-08-20T08:34:46;23.40;99.90
30648;DHT22;17683;53.360;9.736;2023-08-20T08:37:11;23.50;99.90
30648;DHT22;17683;53.360;9.736;2023-08-20T08:39:37;23.60;99.90
30648;DHT22;17683;53.360;9.736;2023-08-20T08:42:04;23.60;99.90
30648;DHT22;17683;53.360;9.736;2023-08-20T08:44:33;23.80;99.90
30648;DHT22;17683;53.360;9.736;2023-08-20T08:47:00;23.90;99.90
30648;DHT22;17683;53.360;9.736;2023-08-20T08:49:26;24.00;99.90
30648;DHT22;17683;53.360;9.736;2023-08-20T08:51:54;24.20;99.90
30648;DHT22;17683;53.360;9.736;2023-08-20T08:54:22;24.30;99.90
30648;DHT22;17683;53.360;9.736;2023-08-20T08:56:48;24.40;99.90
30648;DHT22;17683;53.360;9.736;2023-08-20T08:59:14;24.40;99.90
30648;DHT22;17683;53.360;9.736;2023-08-20T09:01:41;24.50;99.90
30648;DHT22;17683;53.360;9.736;2023-08-20T09:04:07;24.60;99.90
30648;DHT22;17683;53.360;9.736;2023-08-20T09:06:50;24.80;99.90
30648;DHT22;17683;53.360;9.736;2023-08-20T09:09:17;24.70;99.90
30648;DHT22;17683;53.360;9.736;2023-08-20T09:11:43;24.80;99.90
30648;DHT22;17683;53.360;9.736;2023-08-20T09:14:24;24.90;99.90
30648;DHT22;17683;53.360;9.736;2023-08-20T09:16:58;24.80;99.90
30648;DHT22;17683;53.360;9.736;2023-08-20T09:19:24;24.90;99.90
30648;DHT22;17683;53.360;9.736;2023-08-20T09:21:49;25.10;99.90
30648;DHT22;17683;53.360;9.736;2023-08-20T09:24:26;25.20;99.90
30648;DHT22;17683;53.360;9.736;2023-08-20T09:26:58;25.40;99.90
30648;DHT22;17683;53.360;9.736;2023-08-20T09:29:25;25.50;99.90
30648;DHT22;17683;53.360;9.736;2023-08-20T09:31:51;25.60;99.90
30648;DHT22;17683;53.360;9.736;2023-08-20T09:34:25;25.60;99.90
30648;DHT22;17683;53.360;9.736;2023-08-20T09:36:51;25.60;99.90
30648;DHT22;17683;53.360;9.736;2023-08-20T09:39:17;25.60;99.90
30648;DHT22;17683;53.360;9.736;2023-08-20T09:41:44;25.70;99.90
30648;DHT22;17683;53.360;9.736;2023-08-20T09:44:13;25.70;99.90
30648;DHT22;17683;53.360;9.736;2023-08-20T09:46:40;25.70;99.90
30648;DHT22;17683;53.360;9.736;2023-08-20T09:49:10;25.60;99.90
30648;DHT22;17683;53.360;9.736;2023-08-20T09:51:37;25.60;99.90
30648;DHT22;17683;53.360;9.736;2023-08-20T09:54:16;25.70;99.90
30648;DHT22;17683;53.360;9.736;2023-08-20T09:56:46;25.80;99.90
30648;DHT22;17683;53.360;9.736;2023-08-20T09:59:16;25.90;99.90
30648;DHT22;17683;53.360;9.736;2023-08-20T10:01:43;26.00;99.90
30648;DHT22;17683;53.360;9.736;2023-08-20T10:04:10;26.00;99.90
30648;DHT22;17683;53.360;9.736;2023-08-20T10:06:37;26.10;99.90
30648;DHT22;17683;53.360;9.736;2023-08-20T10:09:03;26.20;99.90
30648;DHT22;17683;53.360;9.736;2023-08-20T10:11:29;26.30;99.90
30648;DHT22;17683;53.360;9.736;2023-08-20T10:13:55;26.30;99.90
30648;DHT22;17683;53.360;9.736;2023-08-20T10:16:21;26.30;99.90
30648;DHT22;17683;53.360;9.736;2023-08-20T10:18:48;26.40;99.90
30648;DHT22;17683;53.360;9.736;2023-08-20T10:21:14;26.60;99.90
30648;DHT22;17683;53.360;9.736;2023-08-20T10:23:48;26.60;99.90
30648;DHT22;17683;53.360;9.736;2023-08-20T10:26:14;26.50;99.90
30648;DHT22;17683;53.360;9.736;2023-08-20T10:28:42;26.50;99.90
30648;DHT22;17683;53.360;9.736;2023-08-20T10:31:12;26.40;99.90
30648;DHT22;17683;53.360;9.736;2023-08-20T10:33:49;26.30;99.90
30648;DHT22;17683;53.360;9.736;2023-08-20T10:36:22;26.40;99.90
30648;DHT22;17683;53.360;9.736;2023-08-20T10:38:50;26.70;99.90
30648;DHT22;17683;53.360;9.736;2023-08-20T10:41:25;26.70;99.90
30648;DHT22;17683;53.360;9.736;2023-08-20T10:43:50;26.70;99.90
30648;DHT22;17683;53.360;9.736;2023-08-20T10:46:22;26.70;99.90
30648;DHT22;17683;53.360;9.736;2023-08-20T10:48:53;26.80;99.90
30648;DHT22;17683;53.360;9.736;2023-08-20T10:57:00;27.10;99.90
30648;DHT22;17683;53.360;9.736;2023-08-20T10:59:28;27.20;99.90
30648;DHT22;17683;53.360;9.736;2023-08-20T11:01:56;27.30;99.90
30648;DHT22;17683;53.360;9.736;2023-08-20T11:04:28;27.40;99.90
30648;DHT22;17683;53.360;9.736;2023-08-20T11:06:55;27.50;99.90
30648;DHT22;17683;53.360;9.736;2023-08-20T11:09:26;27.30;99.90
30648;DHT22;17683;53.360;9.736;2023-08-20T11:11:52;27.10;99.90
30648;DHT22;17683;53.360;9.736;2023-08-20T11:14:19;27.10;99.90
30648;DHT22;17683;53.360;9.736;2023-08-20T11:16:45;26.90;99.90
30648;DHT22;17683;53.360;9.736;2023-08-20T11:19:13;27.00;99.90
30648;DHT22;17683;53.360;9.736;2023-08-20T11:21:40;27.00;99.90
30648;DHT22;17683;53.360;9.736;2023-08-20T11:24:06;27.00;99.90
30648;DHT22;17683;53.360;9.736;2023-08-20T11:26:38;27.00;99.90
30648;DHT22;17683;53.360;9.736;2023-08-20T11:29:08;27.00;99.90
30648;DHT22;17683;53.360;9.736;2023-08-20T11:31:35;27.10;99.90
30648;DHT22;17683;53.360;9.736;2023-08-20T11:34:02;26.90;99.90
30648;DHT22;17683;53.360;9.736;2023-08-20T11:36:28;26.80;99.90
30648;DHT22;17683;53.360;9.736;2023-08-20T11:38:54;26.70;99.90
30648;DHT22;17683;53.360;9.736;2023-08-20T11:41:21;26.60;99.90
30648;DHT22;17683;53.360;9.736;2023-08-20T11:43:52;26.70;99.90
30648;DHT22;17683;53.360;9.736;2023-08-20T11:46:22;26.80;99.90
30648;DHT22;17683;53.360;9.736;2023-08-20T11:49:26;26.80;99.90
30648;DHT22;17683;53.360;9.736;2023-08-20T11:51:52;27.00;99.90
30648;DHT22;17683;53.360;9.736;2023-08-20T11:54:18;27.10;99.90
30648;DHT22;17683;53.360;9.736;2023-08-20T11:56:44;27.10;99.90
30648;DHT22;17683;53.360;9.736;2023-08-20T11:59:12;27.10;99.90
30648;DHT22;17683;53.360;9.736;2023-08-20T12:01:38;27.20;99.90
30648;DHT22;17683;53.360;9.736;2023-08-20T12:04:05;27.30;99.90
30648;DHT22;17683;53.360;9.736;2023-08-20T12:06:31;27.50;99.90
30648;DHT22;17683;53.360;9.736;2023-08-20T12:08:58;27.70;99.90
30648;DHT22;17683;53.360;9.736;2023-08-20T12:11:27;27.80;99.90
30648;DHT22;17683;53.360;9.736;2023-08-20T12:13:53;28.00;99.90
30648;DHT22;17683;53.360;9.736;2023-08-20T12:16:22;28.10;99.90
30648;DHT22;17683;53.360;9.736;2023-08-20T12:18:48;28.10;99.90
30648;DHT22;17683;53.360;9.736;2023-08-20T12:21:23;28.10;99.90
30648;DHT22;17683;53.360;9.736;2023-08-20T12:23:48;28.10;99.90
30648;DHT22;17683;53.360;9.736;2023-08-20T12:26:14;28.00;99.90
30648;DHT22;17683;53.360;9.736;2023-08-20T12:28:40;27.90;99.90
30648;DHT22;17683;53.360;9.736;2023-08-20T12:31:07;27.80;99.90
30648;DHT22;17683;53.360;9.736;2023-08-20T12:33:32;27.80;99.90
30648;DHT22;17683;53.360;9.736;2023-08-20T12:35:58;27.90;99.90
30648;DHT22;17683;53.360;9.736;2023-08-20T12:38:24;27.80;99.90
30648;DHT22;17683;53.360;9.736;2023-08-20T12:40:49;27.70;99.90
30648;DHT22;17683;53.360;9.736;2023-08-20T12:43:15;27.50;99.90
30648;DHT22;17683;53.360;9.736;2023-08-20T12:45:41;27.40;99.90
30648;DHT22;17683;53.360;9.736;2023-08-20T12:48:06;27.30;99.90
30648;DHT22;17683;53.360;9.736;2023-08-20T12:50:35;27.30;99.90
30648;DHT22;17683;53.360;9.736;2023-08-20T12:53:01;27.30;99.90
30648;DHT22;17683;53.360;9.736;2023-08-20T12:55:27;27.30;99.90
30648;DHT22;17683;53.360;9.736;2023-08-20T12:57:54;27.50;99.90
30648;DHT22;17683;53.360;9.736;2023-08-20T13:00:24;27.40;99.90
30648;DHT22;17683;53.360;9.736;2023-08-20T13:02:51;27.40;99.90
30648;DHT22;17683;53.360;9.736;2023-08-20T13:05:17;27.50;99.90
30648;DHT22;17683;53.360;9.736;2023-08-20T13:07:43;27.70;99.90
30648;DHT22;17683;53.360;9.736;2023-08-20T13:10:10;27.70;99.90
30648;DHT22;17683;53.360;9.736;2023-08-20T13:12:36;27.60;99.90
30648;DHT22;17683;53.360;9.736;2023-08-20T13:15:03;27.50;99.90
30648;DHT22;17683;53.360;9.736;2023-08-20T13:17:29;27.40;99.90
30648;DHT22;17683;53.360;9.736;2023-08-20T13:19:55;27.40;99.90
30648;DHT22;17683;53.360;9.736;2023-08-20T13:22:22;27.50;99.90
30648;DHT22;17683;53.360;9.736;2023-08-20T13:24:47;27.60;99.90
30648;DHT22;17683;53.360;9.736;2023-08-20T13:27:13;27.60;99.90
30648;DHT22;17683;53.360;9.736;2023-08-20T13:29:40;27.60;99.90
30648;DHT22;17683;53.360;9.736;2023-08-20T13:32:06;27.30;99.90
30648;DHT22;17683;53.360;9.736;2023-08-20T13:34:32;27.20;99.90
30648;DHT22;17683;53.360;9.736;2023-08-20T13:36:57;27.20;99.90
30648;DHT22;17683;53.360;9.736;2023-08-20T13:39:24;27.30;99.90
30648;DHT22;17683;53.360;9.736;2023-08-20T13:41:51;27.20;99.90
30648;DHT22;17683;53.360;9.736;2023-08-20T13:44:17;27.10;99.90
30648;DHT22;17683;53.360;9.736;2023-08-20T13:46:42;26.80;99.90
30648;DHT22;17683;53.360;9.736;2023-08-20T13:49:08;26.60;99.90
30648;DHT22;17683;53.360;9.736;2023-08-20T13:51:34;26.60;99.90
30648;DHT22;17683;53.360;9.736;2023-08-20T13:54:00;26.60;99.90
30648;DHT22;17683;53.360;9.736;2023-08-20T13:56:26;26.70;99.90
30648;DHT22;17683;53.360;9.736;2023-08-20T13:58:53;26.80;99.90
30648;DHT22;17683;53.360;9.736;2023-08-20T14:01:18;26.90;99.90
30648;DHT22;17683;53.360;9.736;2023-08-20T14:03:44;27.00;99.90
30648;DHT22;17683;53.360;9.736;2023-08-20T14:06:10;26.90;99.90
30648;DHT22;17683;53.360;9.736;2023-08-20T14:08:36;27.00;99.90
30648;DHT22;17683;53.360;9.736;2023-08-20T14:11:01;27.00;99.90
30648;DHT22;17683;53.360;9.736;2023-08-20T14:13:27;27.10;99.90
30648;DHT22;17683;53.360;9.736;2023-08-20T14:15:53;27.00;99.90
30648;DHT22;17683;53.360;9.736;2023-08-20T14:18:18;27.10;99.90
30648;DHT22;17683;53.360;9.736;2023-08-20T14:20:44;27.00;99.90
30648;DHT22;17683;53.360;9.736;2023-08-20T14:23:10;26.80;99.90
30648;DHT22;17683;53.360;9.736;2023-08-20T14:25:36;26.50;99.90
30648;DHT22;17683;53.360;9.736;2023-08-20T14:28:01;26.50;99.90
30648;DHT22;17683;53.360;9.736;2023-08-20T14:30:27;26.40;99.90
30648;DHT22;17683;53.360;9.736;2023-08-20T14:32:53;26.40;99.90
30648;DHT22;17683;53.360;9.736;2023-08-20T14:35:19;26.30;99.90
30648;DHT22;17683;53.360;9.736;2023-08-20T14:37:45;26.30;99.90
30648;DHT22;17683;53.360;9.736;2023-08-20T14:40:11;26.20;99.90
30648;DHT22;17683;53.360;9.736;2023-08-20T14:42:37;26.00;99.90
30648;DHT22;17683;53.360;9.736;2023-08-20T14:45:03;25.90;99.90
30648;DHT22;17683;53.360;9.736;2023-08-20T14:47:30;26.00;99.90
30648;DHT22;17683;53.360;9.736;2023-08-20T14:49:56;26.20;99.90
30648;DHT22;17683;53.360;9.736;2023-08-20T14:52:22;26.30;99.90
30648;DHT22;17683;53.360;9.736;2023-08-20T14:54:48;26.40;99.90
30648;DHT22;17683;53.360;9.736;2023-08-20T14:57:14;26.40;99.90
30648;DHT22;17683;53.360;9.736;2023-08-20T14:59:43;26.40;99.90
30648;DHT22;17683;53.360;9.736;2023-08-20T15:02:08;26.40;99.90
30648;DHT22;17683;53.360;9.736;2023-08-20T15:04:34;26.30;99.90
30648;DHT22;17683;53.360;9.736;2023-08-20T15:07:00;26.30;99.90
30648;DHT22;17683;53.360;9.736;2023-08-20T15:09:26;26.30;99.90
30648;DHT22;17683;53.360;9.736;2023-08-20T15:11:51;26.30;99.90
30648;DHT22;17683;53.360;9.736;2023-08-20T15:14:17;26.20;99.90
30648;DHT22;17683;53.360;9.736;2023-08-20T15:16:43;26.00;99.90
30648;DHT22;17683;53.360;9.736;2023-08-20T15:19:09;25.90;99.90
30648;DHT22;17683;53.360;9.736;2023-08-20T15:21:34;25.80;99.90
30648;DHT22;17683;53.360;9.736;2023-08-20T15:24:00;25.80;99.90
30648;DHT22;17683;53.360;9.736;2023-08-20T15:26:26;25.90;99.90
30648;DHT22;17683;53.360;9.736;2023-08-20T15:28:51;25.90;99.90
30648;DHT22;17683;53.360;9.736;2023-08-20T15:31:17;26.00;99.90
30648;DHT22;17683;53.360;9.736;2023-08-20T15:33:43;26.00;99.90
30648;DHT22;17683;53.360;9.736;2023-08-20T15:36:08;25.90;99.90
30648;DHT22;17683;53.360;9.736;2023-08-20T15:38:34;25.90;99.90